Latest Weather Observations for Sheffield

IDT60801

Issued at 1:35 pm EDT Saturday 22 November 2014 (issued every 30 minutes, with the page automatically refreshed every 10 minutes)

About weather observations | Map of weather stations | Latest weather observations for TAS | Other Formats
Station Details ID: 091291 Name: SHEFFIELD SCHOOL FARM Lat: -41.39 Lon: 146.32 Height: 294.2 m
Data from the previous 72 hours. | See also: Recent months at Sheffield
Date/Time
EDT
Temp
°C
App
Temp
°C
Dew
Point
Rel
Hum
%
Delta-T
°C
Wind Press
QNH
hPa
Press
MSL
hPa
Rain
since 9 am
mm
Dir
 
Spd
km/h
Gust
km/h
Spd
kts
Gust
kts
22/01:30pm 15.8 13.8 11.4 75 2.4 N 13 20 7 11 1009.5 1009.3 0.0
22/01:00pm 16.0 12.7 9.7 66 3.3 NNW 17 22 9 12 1009.4 1009.2 0.0
22/12:30pm 16.2 13.6 7.9 58 4.2 NNW 11 17 6 9 1009.3 1009.1 0.0
22/12:00pm 16.0 14.0 8.7 62 3.8 NW 9 15 5 8 1009.8 1009.6 0.0
22/11:30am 14.8 13.1 9.8 72 2.6 NNW 9 13 5 7 1010.1 1009.9 0.0
22/11:00am 13.6 12.7 10.6 82 1.6 NNW 6 11 3 6 1010.3 1010.1 0.0
22/10:30am 12.9 12.2 9.9 82 1.6 NNW 4 9 2 5 1010.4 1010.3 0.0
22/10:00am 11.7 10.7 8.9 83 1.4 NNW 4 6 2 3 1010.5 1010.4 0.0
22/09:30am 11.6 11.3 8.5 81 1.6 CALM 0 6 0 3 1010.7 1010.6 0.0
22/09:00am 11.2 10.8 8.2 82 1.5 CALM 0 0 0 0 1010.7 1010.6 0.0
22/08:30am 10.6 10.2 8.4 86 1.1 NW 0 0 0 0 1010.9 1010.8 0.0
22/08:00am 9.3 7.4 6.9 85 1.1 NNW 6 7 3 4 1011.5 1011.4 0.0
22/07:30am 8.7 6.5 6.0 83 1.3 NNW 7 9 4 5 1011.1 1011.0 0.0
22/07:00am 8.1 6.0 5.6 84 1.1 N 6 9 3 5 1010.8 1010.7 0.0
22/06:30am 6.5 4.5 4.2 85 1.0 NNW 4 6 2 3 1010.7 1010.6 0.0
22/06:00am 5.8 3.2 3.0 82 1.2 W 6 7 3 4 1010.5 1010.4 0.0
22/05:30am 4.8 2.0 3.0 88 0.8 W 7 9 4 5 1010.0 1009.8 0.0
22/05:00am 4.3 1.3 2.3 87 0.8 NW 7 9 4 5 1009.9 1009.7 0.0
22/04:30am 4.8 2.5 2.7 86 0.9 NNW 4 6 2 3 1009.4 1009.2 0.0
22/04:00am 5.0 2.7 2.5 84 1.0 W 4 6 2 3 1009.5 1009.3 0.0
22/03:30am 5.8 3.0 2.3 78 1.4 SW 6 7 3 4 1009.1 1008.9 0.0
22/03:00am 6.3 4.4 3.1 80 1.4 SSE 2 4 1 2 1009.1 1008.9 0.0
22/02:30am 6.9 5.1 3.2 77 1.6 SW 2 6 1 3 1009.5 1009.3 0.0
22/02:00am 6.5 5.0 3.1 79 1.4 CALM 0 2 0 1 1010.0 1009.8 0.0
22/01:30am 7.3 4.6 3.5 77 1.6 WNW 7 9 4 5 1010.3 1010.1 0.0
22/01:00am 6.7 3.6 3.5 80 1.4 NW 9 13 5 7 1010.9 1010.8 0.0
22/12:30am 7.3 4.5 3.4 76 1.7 NW 7 9 4 5 1010.8 1010.7 0.0
22/12:00am 7.5 4.4 3.6 76 1.7 NNW 9 11 5 6 1011.0 1010.9 0.0
 
Date/Time
EDT
Temp
°C
App
Temp
°C
Dew
Point
Rel
Hum
%
Delta-T
°C
Wind Press
QNH
hPa
Press
MSL
hPa
Rain
since 9 am
mm
Dir
 
Spd
km/h
Gust
km/h
Spd
kts
Gust
kts
21/11:30pm 8.7 5.8 2.7 66 2.6 NW 7 7 4 4 1011.2 1011.1 0.0
21/11:00pm 9.3 6.6 2.9 64 2.8 WNW 6 7 3 4 1011.3 1011.2 0.0
21/10:30pm 9.7 6.8 2.6 61 3.1 W 7 7 4 4 1011.4 1011.3 0.0
21/10:00pm 10.4 7.5 2.5 58 3.4 NW 7 7 4 4 1011.2 1011.1 0.0
21/09:30pm 11.1 9.5 2.2 54 3.9 CALM 0 0 0 0 1010.8 1010.7 0.0
21/09:00pm 11.7 9.3 2.2 52 4.2 W 4 6 2 3 1010.5 1010.4 0.0
21/08:30pm 12.5 10.9 2.4 50 4.5 CALM 0 0 0 0 1010.1 1009.9 0.0
21/08:00pm 13.5 10.6 2.7 48 4.9 WSW 7 11 4 6 1009.4 1009.2 0.0
21/07:30pm 14.8 10.8 2.7 44 5.5 W 13 17 7 9 1009.1 1008.9 0.0
21/07:00pm 15.8 11.3 2.2 40 6.2 WSW 15 22 8 12 1008.5 1008.3 0.0
21/06:30pm 16.3 11.8 2.3 39 6.4 WSW 15 20 8 11 1007.9 1007.8 0.0
21/06:00pm 16.3 11.4 2.0 38 6.5 SW 17 26 9 14 1007.6 1007.5 0.0
21/05:30pm 16.5 11.1 2.2 38 6.5 WSW 20 26 11 14 1007.5 1007.4 0.0
21/05:00pm 16.5 9.9 -0.2 32 7.3 W 24 35 13 19 1007.3 1007.1 0.0
21/04:30pm 16.9 11.6 3.2 40 6.4 W 20 30 11 16 1007.0 1006.8 0.0
21/04:00pm 16.8 11.5 2.8 39 6.5 W 20 33 11 18 1007.0 1006.8 0.0
21/03:30pm 16.3 10.2 2.7 40 6.3 W 24 35 13 19 1006.8 1006.6 0.0
21/03:00pm 17.0 11.2 4.3 43 6.1 W 24 41 13 22 1006.7 1006.5 0.0
21/02:30pm 16.8 11.0 4.5 44 5.9 W 24 35 13 19 1006.3 1006.1 0.0
21/02:00pm 16.4 10.8 5.4 48 5.4 WSW 24 35 13 19 1006.3 1006.1 0.0
21/01:30pm 15.5 9.5 5.1 50 5.0 W 26 41 14 22 1006.2 1006.0 0.0
21/01:00pm 14.8 11.0 5.9 55 4.3 WSW 15 26 8 14 1006.4 1006.2 0.0
21/12:30pm 14.7 10.7 6.5 58 4.0 SW 17 30 9 16 1006.0 1005.8 0.0
21/12:00pm 13.7 9.5 5.8 59 3.8 SW 17 24 9 13 1005.6 1005.4 0.0
21/11:30am 13.0 9.0 6.6 65 3.1 WSW 17 26 9 14 1005.7 1005.5 0.0
21/11:00am 12.4 7.7 6.0 65 3.1 W 20 30 11 16 1005.2 1005.0 0.0
21/10:30am 11.8 7.3 6.1 68 2.7 W 19 30 10 16 1005.1 1004.9 0.0
21/10:00am 11.9 6.2 6.6 70 2.6 WSW 26 35 14 19 1004.9 1004.7 0.0
21/09:30am 12.8 8.4 7.3 69 2.7 W 20 28 11 15 1004.4 1004.2 0.0
21/09:00am 12.8 7.6 7.3 69 2.7 W 24 37 13 20 1004.3 1004.1 1.0
21/08:30am 13.3 8.7 8.0 70 2.7 W 22 32 12 17 1003.7 1003.5 1.0
21/08:00am 13.9 10.4 8.7 71 2.7 W 17 26 9 14 1003.2 1003.0 1.0
21/07:30am 13.3 10.7 9.4 77 2.0 W 13 20 7 11 1002.5 1002.3 1.0
21/07:00am 11.8 10.7 10.5 92 0.7 NW 7 11 4 6 1002.2 1002.0 1.0
21/06:30am 10.3 8.6 9.8 97 0.3 NNW 9 11 5 6 1001.9 1001.7 1.0
21/06:00am 9.8 8.2 8.9 94 0.5 NW 7 9 4 5 1001.6 1001.3 1.0
21/05:30am 10.8 9.2 10.2 96 0.3 NNW 9 13 5 7 1001.0 1000.8 1.0
21/05:00am 11.3 10.2 10.8 97 0.3 NNW 7 9 4 5 1000.9 1000.7 1.0
21/04:30am 11.4 10.4 11.1 98 0.2 NNW 7 9 4 5 1000.7 1000.5 1.0
21/04:00am 11.5 10.5 11.0 97 0.3 NNW 7 11 4 6 1000.6 1000.4 1.0
21/03:30am 11.8 10.9 11.3 97 0.3 N 7 9 4 5 1000.4 1000.2 1.0
21/03:00am 11.9 10.3 11.4 97 0.3 NNW 11 13 6 7 1000.6 1000.4 1.0
21/02:30am 12.3 11.2 12.1 99 0.1 NNW 9 13 5 7 1000.6 1000.4 1.0
21/02:00am 12.9 12.0 12.7 99 0.1 NNW 9 11 5 6 1000.9 1000.7 1.0
21/01:30am 13.2 11.7 13.0 99 0.1 NNW 13 17 7 9 1001.3 1001.0 1.0
21/01:00am 13.3 11.4 13.1 99 0.1 NNW 15 19 8 10 1001.7 1001.5 0.8
21/12:30am 13.5 12.1 13.3 99 0.1 NNW 13 17 7 9 1001.9 1001.7 0.8
21/12:00am 13.5 12.5 13.3 99 0.1 NW 11 15 6 8 1001.9 1001.7 0.8
 
Date/Time
EDT
Temp
°C
App
Temp
°C
Dew
Point
Rel
Hum
%
Delta-T
°C
Wind Press
QNH
hPa
Press
MSL
hPa
Rain
since 9 am
mm
Dir
 
Spd
km/h
Gust
km/h
Spd
kts
Gust
kts
20/11:30pm 13.4 11.9 13.2 99 0.1 NW 13 19 7 10 1002.2 1002.0 0.8
20/11:00pm 13.4 12.3 13.2 99 0.1 NNW 11 13 6 7 1002.4 1002.2 0.8
20/10:30pm 13.2 12.0 12.9 98 0.2 NNW 11 13 6 7 1002.8 1002.6 0.8
20/10:00pm 13.1 11.5 12.8 98 0.2 NNW 13 17 7 9 1003.1 1002.9 0.8
20/09:30pm 13.2 12.3 12.7 97 0.3 NNW 9 15 5 8 1003.0 1002.8 0.6
20/09:00pm 13.2 11.5 12.6 96 0.3 N 13 17 7 9 1003.1 1002.9 0.2
20/08:30pm 13.2 12.6 12.4 95 0.4 N 7 9 4 5 1003.0 1002.8 0.2
20/08:00pm 13.2 12.8 12.3 94 0.5 N 6 11 3 6 1003.3 1003.1 0.2
20/07:30pm 13.2 11.7 11.9 92 0.7 N 11 15 6 8 1003.3 1003.1 0.2
20/07:00pm 13.2 12.5 11.9 92 0.7 NW 7 9 4 5 1003.5 1003.3 0.2
20/06:30pm 13.2 12.5 11.9 92 0.7 NNW 7 13 4 7 1003.6 1003.4 0.2
20/06:00pm 13.5 11.3 12.1 91 0.8 NNW 15 20 8 11 1003.5 1003.3 0.0
20/05:30pm 13.9 10.5 11.4 85 1.4 NNW 20 30 11 16 1003.9 1003.7 0.0
20/05:00pm 15.2 13.9 11.2 77 2.2 NNW 9 15 5 8 1003.7 1003.5 0.0
20/04:30pm 15.2 13.1 11.0 76 2.3 NW 13 19 7 10 1004.1 1003.9 0.0
20/04:00pm 15.7 12.0 11.5 76 2.3 NNW 22 30 12 16 1003.8 1003.6 0.0
20/03:30pm 17.2 15.1 12.5 74 2.6 N 15 22 8 12 1003.6 1003.4 0.0
20/03:00pm 18.2 16.4 12.2 68 3.4 N 13 20 7 11 1003.2 1003.0 0.0
20/02:30pm 17.1 16.2 11.4 69 3.1 N 7 13 4 7 1003.8 1003.6 0.0
20/02:00pm 17.0 15.7 11.1 68 3.2 NNW 9 15 5 8 1004.1 1003.9 0.0
20/01:30pm 17.3 15.9 9.5 60 4.1 NNW 7 11 4 6 1004.1 1003.9 0.0
20/01:00pm 17.2 16.3 9.1 59 4.3 ENE 4 7 2 4 1004.5 1004.4 0.0
20/12:30pm 17.0 16.8 9.2 60 4.1 CALM 0 4 0 2 1005.0 1004.8 0.0
20/12:00pm 16.5 15.0 10.4 67 3.3 SE 9 11 5 6 1004.7 1004.6 0.0
20/11:30am 15.8 15.0 9.5 66 3.3 E 4 7 2 4 1006.1 1005.9 0.0
20/11:00am 15.7 15.2 10.7 72 2.7 E 4 6 2 3 1006.6 1006.4 0.0
20/10:30am 15.0 15.4 11.2 78 2.1 CALM 0 6 0 3 1007.5 1007.4 0.0
20/10:00am 14.2 14.0 10.4 78 2.0 W 2 4 1 2 1007.4 1007.3 0.0
20/09:30am 14.3 13.6 10.1 76 2.2 W 4 7 2 4 1007.3 1007.1 0.0
20/09:00am 13.9 12.8 10.5 80 1.8 ESE 7 11 4 6 1007.0 1006.8 0.0
20/08:30am 12.6 11.9 10.0 84 1.4 ESE 4 4 2 2 1007.4 1007.3 0.0
20/08:00am 12.2 11.6 10.4 89 0.9 S 4 7 2 4 1008.0 1007.9 0.0
20/07:30am 11.1 10.0 10.0 93 0.6 ESE 6 9 3 5 1007.3 1007.1 0.0
20/07:00am 10.7 9.6 9.8 94 0.5 ESE 6 7 3 4 1007.9 1007.8 0.0
20/06:30am 10.2 9.3 9.3 94 0.5 SSE 4 4 2 2 1008.4 1008.2 0.0
20/06:00am 10.0 9.1 9.4 96 0.3 SSE 4 6 2 3 1008.0 1007.9 0.0
20/05:30am 10.0 9.5 9.2 95 0.4 SE 2 4 1 2 1008.4 1008.2 0.0
20/05:00am 10.1 9.9 9.2 94 0.5 CALM 0 0 0 0 1008.4 1008.2 0.0
20/04:30am 9.7 9.4 8.6 93 0.5 CALM 0 0 0 0 1008.4 1008.2 0.0
20/04:00am 10.0 8.6 8.9 93 0.6 WSW 6 7 3 4 1008.6 1008.4 0.0
20/03:30am 10.6 9.8 9.5 93 0.6 W 4 6 2 3 1009.3 1009.1 0.0
20/03:00am 11.0 10.3 10.1 94 0.5 WNW 4 7 2 4 1009.2 1009.0 0.0
20/02:30am 11.0 9.9 10.1 94 0.5 W 6 7 3 4 1009.4 1009.2 0.0
20/02:00am 11.1 10.1 10.3 95 0.4 NNW 6 7 3 4 1009.4 1009.2 0.0
20/01:30am 11.0 10.3 10.1 94 0.5 NNW 4 6 2 3 1010.0 1009.8 0.0
20/01:00am 10.9 9.8 10.0 94 0.5 N 6 7 3 4 1010.3 1010.1 0.0
20/12:30am 11.0 10.3 10.2 95 0.4 NNW 4 4 2 2 1010.6 1010.5 0.0
20/12:00am 10.8 10.5 10.0 95 0.4 N 2 7 1 4 1010.8 1010.7 0.0
 
Date/Time
EDT
Temp
°C
App
Temp
°C
Dew
Point
Rel
Hum
%
Delta-T
°C
Wind Press
QNH
hPa
Press
MSL
hPa
Rain
since 9 am
mm
Dir
 
Spd
km/h
Gust
km/h
Spd
kts
Gust
kts
19/11:30pm 10.8 9.5 10.0 95 0.4 NNW 7 11 4 6 1011.4 1011.3 0.0
19/11:00pm 10.6 9.2 9.7 94 0.5 N 7 11 4 6 1011.4 1011.3 0.0
19/10:30pm 10.4 9.0 9.5 94 0.5 NNW 7 9 4 5 1011.7 1011.6 0.0
19/10:00pm 10.6 9.7 9.4 92 0.6 N 4 6 2 3 1011.5 1011.4 0.0
19/09:30pm 10.6 9.4 9.4 92 0.6 N 6 9 3 5 1011.7 1011.6 0.0
19/09:00pm 10.6 9.1 9.0 90 0.8 N 7 11 4 6 1011.7 1011.6 0.0
19/08:30pm 11.0 9.2 9.3 89 0.9 N 9 13 5 7 1011.6 1011.5 0.0
19/08:00pm 11.5 9.6 9.2 86 1.2 N 9 13 5 7 1012.2 1012.0 0.0
19/07:30pm 12.5 9.5 9.3 81 1.6 NNW 15 20 8 11 1012.3 1012.1 0.0
19/07:00pm 13.6 10.2 9.3 75 2.2 NNW 17 20 9 11 1012.2 1012.0 0.0
19/06:30pm 14.4 11.8 9.4 72 2.6 N 13 19 7 10 1012.3 1012.1 0.0
19/06:00pm 14.4 11.3 9.0 70 2.8 N 15 22 8 12 1012.4 1012.2 0.0
19/05:30pm 14.5 10.7 8.9 69 2.9 N 19 26 10 14 1012.9 1012.7 0.0
19/05:00pm 14.5 10.7 9.1 70 2.8 N 19 28 10 15 1013.0 1012.8 0.0
19/04:30pm 15.5 12.3 9.8 69 3.0 N 17 26 9 14 1013.2 1013.0 0.0
19/04:00pm 15.6 12.0 9.9 69 3.0 NNW 19 20 10 11 1013.5 1013.4 0.0
19/03:30pm 16.0 12.4 10.5 70 3.0 N 20 28 11 15 1014.0 1013.9 0.0
19/03:00pm 15.3 11.5 9.9 70 2.9 N 20 30 11 16 1014.3 1014.2 0.0
19/02:30pm 16.0 11.2 10.3 69 3.1 NNW 26 37 14 20 1014.2 1014.1 0.0
19/02:00pm 16.6 12.9 10.0 65 3.5 N 20 32 11 17 1014.2 1014.1 0.0

Other Formats:

Comma delimited format used in spreadsheet applications
http://www.bom.gov.au/fwo/IDT60801/IDT60801.94955.axf

JavaScript Object Notation format (JSON) in row-major order
http://www.bom.gov.au/fwo/IDT60801/IDT60801.94955.json